sensor_id;sensor_type;location;lat;lon;timestamp;pressure;altitude;pressure_sealevel;temperature;humidity
40502;BME280;29631;49.168;9.848;2023-04-06T00:01:41;96866.41;;;9.17;61.91
40502;BME280;29631;49.168;9.848;2023-04-06T00:04:07;96861.31;;;9.16;61.82
40502;BME280;29631;49.168;9.848;2023-04-06T00:06:33;96837.56;;;9.03;61.39
40502;BME280;29631;49.168;9.848;2023-04-06T00:09:00;96858.25;;;9.12;61.61
40502;BME280;29631;49.168;9.848;2023-04-06T00:11:26;96854.00;;;9.11;61.63
40502;BME280;29631;49.168;9.848;2023-04-06T00:13:52;96850.75;;;9.09;61.38
40502;BME280;29631;49.168;9.848;2023-04-06T00:16:18;96863.16;;;9.15;62.34
40502;BME280;29631;49.168;9.848;2023-04-06T00:18:44;96873.22;;;9.12;61.28
40502;BME280;29631;49.168;9.848;2023-04-06T00:21:12;96848.50;;;9.06;62.06
40502;BME280;29631;49.168;9.848;2023-04-06T00:23:41;96854.00;;;9.11;61.73
40502;BME280;29631;49.168;9.848;2023-04-06T00:26:08;96843.63;;;9.03;61.31
40502;BME280;29631;49.168;9.848;2023-04-06T00:28:34;96870.41;;;9.13;61.94
40502;BME280;29631;49.168;9.848;2023-04-06T00:31:00;96820.00;;;8.82;61.67
40502;BME280;29631;49.168;9.848;2023-04-06T00:33:26;96845.22;;;8.98;62.34
40502;BME280;29631;49.168;9.848;2023-04-06T00:35:51;96789.50;;;8.61;61.43
40502;BME280;29631;49.168;9.848;2023-04-06T00:38:17;96829.41;;;8.91;61.41
40502;BME280;29631;49.168;9.848;2023-04-06T00:40:43;96818.38;;;8.81;61.89
40502;BME280;29631;49.168;9.848;2023-04-06T00:43:13;96834.66;;;8.91;61.58
40502;BME280;29631;49.168;9.848;2023-04-06T00:45:40;96841.94;;;8.96;62.05
40502;BME280;29631;49.168;9.848;2023-04-06T00:48:07;96835.44;;;8.92;61.96
40502;BME280;29631;49.168;9.848;2023-04-06T00:50:33;96822.66;;;8.89;62.36
40502;BME280;29631;49.168;9.848;2023-04-06T00:52:59;96800.44;;;8.64;62.00
40502;BME280;29631;49.168;9.848;2023-04-06T00:55:26;96832.63;;;8.93;61.36
40502;BME280;29631;49.168;9.848;2023-04-06T00:57:53;96856.53;;;8.98;61.93
40502;BME280;29631;49.168;9.848;2023-04-06T01:00:19;96833.88;;;8.97;62.07
40502;BME280;29631;49.168;9.848;2023-04-06T01:02:44;96827.94;;;8.89;62.04
40502;BME280;29631;49.168;9.848;2023-04-06T01:05:11;96833.63;;;8.92;61.22
40502;BME280;29631;49.168;9.848;2023-04-06T01:07:37;96816.63;;;8.88;61.66
40502;BME280;29631;49.168;9.848;2023-04-06T01:10:04;96821.69;;;8.90;62.30
40502;BME280;29631;49.168;9.848;2023-04-06T01:12:30;96832.63;;;8.93;61.29
40502;BME280;29631;49.168;9.848;2023-04-06T01:14:56;96814.31;;;8.79;61.80
40502;BME280;29631;49.168;9.848;2023-04-06T01:17:22;96803.38;;;8.75;62.17
40502;BME280;29631;49.168;9.848;2023-04-06T01:19:47;96817.56;;;8.81;62.06
40502;BME280;29631;49.168;9.848;2023-04-06T01:22:18;96808.75;;;8.67;61.25
40502;BME280;29631;49.168;9.848;2023-04-06T01:24:45;96809.50;;;8.62;61.34
40502;BME280;29631;49.168;9.848;2023-04-06T01:27:12;96803.63;;;8.60;61.98
40502;BME280;29631;49.168;9.848;2023-04-06T01:29:38;96776.63;;;8.45;61.62
40502;BME280;29631;49.168;9.848;2023-04-06T01:32:07;96801.75;;;8.54;62.15
40502;BME280;29631;49.168;9.848;2023-04-06T01:34:33;96798.13;;;8.55;61.78
40502;BME280;29631;49.168;9.848;2023-04-06T01:36:59;96810.13;;;8.64;62.14
40502;BME280;29631;49.168;9.848;2023-04-06T01:39:25;96826.28;;;8.61;61.95
40502;BME280;29631;49.168;9.848;2023-04-06T01:41:50;96790.63;;;8.52;61.19
40502;BME280;29631;49.168;9.848;2023-04-06T01:44:17;96795.94;;;8.58;61.50
40502;BME280;29631;49.168;9.848;2023-04-06T01:46:44;96789.00;;;8.51;62.06
40502;BME280;29631;49.168;9.848;2023-04-06T01:49:11;96802.38;;;8.56;61.95
40502;BME280;29631;49.168;9.848;2023-04-06T01:51:37;96807.28;;;8.59;62.43
40502;BME280;29631;49.168;9.848;2023-04-06T01:54:03;96792.88;;;8.55;61.83
40502;BME280;29631;49.168;9.848;2023-04-06T01:56:29;96790.63;;;8.52;62.51
40502;BME280;29631;49.168;9.848;2023-04-06T01:58:55;96778.50;;;8.51;62.28
40502;BME280;29631;49.168;9.848;2023-04-06T02:01:21;96794.75;;;8.61;62.53
40502;BME280;29631;49.168;9.848;2023-04-06T02:03:46;96790.19;;;8.48;61.78
40502;BME280;29631;49.168;9.848;2023-04-06T02:06:12;96785.38;;;8.52;61.97
40502;BME280;29631;49.168;9.848;2023-04-06T02:08:38;96783.75;;;8.51;61.73
40502;BME280;29631;49.168;9.848;2023-04-06T02:11:04;96785.75;;;8.49;62.65
40502;BME280;29631;49.168;9.848;2023-04-06T02:13:30;96786.75;;;8.48;62.06
40502;BME280;29631;49.168;9.848;2023-04-06T02:15:55;96791.84;;;8.49;61.89
40502;BME280;29631;49.168;9.848;2023-04-06T02:18:22;96779.44;;;8.43;62.03
40502;BME280;29631;49.168;9.848;2023-04-06T02:20:48;96796.69;;;8.52;62.65
40502;BME280;29631;49.168;9.848;2023-04-06T02:23:14;96770.31;;;8.39;62.14
40502;BME280;29631;49.168;9.848;2023-04-06T02:25:40;96776.38;;;8.40;61.92
40502;BME280;29631;49.168;9.848;2023-04-06T02:28:06;96772.69;;;8.34;62.53
40502;BME280;29631;49.168;9.848;2023-04-06T02:30:32;96793.75;;;8.41;62.06
40502;BME280;29631;49.168;9.848;2023-04-06T02:33:00;96760.50;;;8.27;62.33
40502;BME280;29631;49.168;9.848;2023-04-06T02:35:28;96754.00;;;8.23;62.59
40502;BME280;29631;49.168;9.848;2023-04-06T02:37:54;96759.19;;;8.16;62.69
40502;BME280;29631;49.168;9.848;2023-04-06T02:40:20;96779.75;;;8.34;62.69
40502;BME280;29631;49.168;9.848;2023-04-06T02:42:46;96769.38;;;8.26;62.52
40502;BME280;29631;49.168;9.848;2023-04-06T02:45:12;96771.19;;;8.25;62.04
40502;BME280;29631;49.168;9.848;2023-04-06T02:47:38;96759.63;;;8.20;62.54
40502;BME280;29631;49.168;9.848;2023-04-06T02:50:04;96773.81;;;8.25;62.94
40502;BME280;29631;49.168;9.848;2023-04-06T02:52:30;96766.25;;;8.16;62.80
40502;BME280;29631;49.168;9.848;2023-04-06T02:54:56;96762.34;;;8.12;61.66
40502;BME280;29631;49.168;9.848;2023-04-06T02:57:21;96764.34;;;8.10;61.95
40502;BME280;29631;49.168;9.848;2023-04-06T02:59:47;96752.06;;;7.96;62.27
40502;BME280;29631;49.168;9.848;2023-04-06T03:02:13;96754.56;;;8.04;62.56
40502;BME280;29631;49.168;9.848;2023-04-06T03:04:39;96755.69;;;7.95;62.64
40502;BME280;29631;49.168;9.848;2023-04-06T03:07:04;96777.66;;;8.08;62.66
40502;BME280;29631;49.168;9.848;2023-04-06T03:09:30;96768.69;;;8.03;62.02
40502;BME280;29631;49.168;9.848;2023-04-06T03:11:56;96763.44;;;8.03;62.73
40502;BME280;29631;49.168;9.848;2023-04-06T03:14:22;96773.59;;;8.06;62.50
40502;BME280;29631;49.168;9.848;2023-04-06T03:16:48;96789.88;;;8.16;62.47
40502;BME280;29631;49.168;9.848;2023-04-06T03:19:14;96747.22;;;7.93;62.06
40502;BME280;29631;49.168;9.848;2023-04-06T03:21:41;96765.81;;;7.98;62.74
40502;BME280;29631;49.168;9.848;2023-04-06T03:24:07;96759.69;;;7.91;62.02
40502;BME280;29631;49.168;9.848;2023-04-06T03:26:33;96774.06;;;7.95;62.71
40502;BME280;29631;49.168;9.848;2023-04-06T03:28:59;96780.78;;;7.97;62.49
40502;BME280;29631;49.168;9.848;2023-04-06T03:31:26;96758.81;;;7.84;62.80
40502;BME280;29631;49.168;9.848;2023-04-06T03:33:52;96761.69;;;7.89;62.26
40502;BME280;29631;49.168;9.848;2023-04-06T03:36:18;96726.28;;;7.64;62.64
40502;BME280;29631;49.168;9.848;2023-04-06T03:38:44;96769.38;;;7.91;62.69
40502;BME280;29631;49.168;9.848;2023-04-06T03:41:10;96720.09;;;7.51;61.83
40502;BME280;29631;49.168;9.848;2023-04-06T03:43:36;96783.56;;;7.96;62.24
40502;BME280;29631;49.168;9.848;2023-04-06T03:46:01;96782.31;;;7.92;62.27
40502;BME280;29631;49.168;9.848;2023-04-06T03:48:27;96790.44;;;7.97;62.89
40502;BME280;29631;49.168;9.848;2023-04-06T03:50:53;96788.56;;;7.91;62.14
40502;BME280;29631;49.168;9.848;2023-04-06T03:53:18;96776.53;;;7.82;62.23
40502;BME280;29631;49.168;9.848;2023-04-06T03:55:44;96791.19;;;7.91;62.44
40502;BME280;29631;49.168;9.848;2023-04-06T03:58:10;96726.25;;;7.43;62.54
40502;BME280;29631;49.168;9.848;2023-04-06T04:00:36;96794.19;;;7.88;63.36
40502;BME280;29631;49.168;9.848;2023-04-06T04:03:01;96792.13;;;7.84;62.46
40502;BME280;29631;49.168;9.848;2023-04-06T04:05:28;96769.53;;;7.68;62.19
40502;BME280;29631;49.168;9.848;2023-04-06T04:07:54;96803.59;;;7.83;62.35
40502;BME280;29631;49.168;9.848;2023-04-06T04:10:19;96788.41;;;7.78;62.17
40502;BME280;29631;49.168;9.848;2023-04-06T04:12:45;96778.00;;;7.70;62.52
40502;BME280;29631;49.168;9.848;2023-04-06T04:15:11;96803.59;;;7.83;62.65
40502;BME280;29631;49.168;9.848;2023-04-06T04:17:36;96790.03;;;7.79;62.97
40502;BME280;29631;49.168;9.848;2023-04-06T04:20:02;96801.16;;;7.81;62.50
40502;BME280;29631;49.168;9.848;2023-04-06T04:22:28;96797.91;;;7.79;62.49
40502;BME280;29631;49.168;9.848;2023-04-06T04:24:54;96789.50;;;7.69;63.03
40502;BME280;29631;49.168;9.848;2023-04-06T04:27:20;96784.81;;;7.65;62.83
40502;BME280;29631;49.168;9.848;2023-04-06T04:29:46;96797.13;;;7.64;62.66
40502;BME280;29631;49.168;9.848;2023-04-06T04:32:12;96763.22;;;7.48;62.76
40502;BME280;29631;49.168;9.848;2023-04-06T04:34:37;96700.09;;;7.00;62.53
40502;BME280;29631;49.168;9.848;2023-04-06T04:37:06;96778.97;;;7.48;62.27
40502;BME280;29631;49.168;9.848;2023-04-06T04:39:32;96805.81;;;7.65;62.38
40502;BME280;29631;49.168;9.848;2023-04-06T04:41:58;96801.31;;;7.59;63.06
40502;BME280;29631;49.168;9.848;2023-04-06T04:44:23;96792.53;;;7.52;62.34
40502;BME280;29631;49.168;9.848;2023-04-06T04:46:49;96781.69;;;7.40;62.38
40502;BME280;29631;49.168;9.848;2023-04-06T04:49:15;96822.72;;;7.62;62.76
40502;BME280;29631;49.168;9.848;2023-04-06T04:51:41;96805.44;;;7.53;62.99
40502;BME280;29631;49.168;9.848;2023-04-06T04:54:06;96812.34;;;7.54;62.50
40502;BME280;29631;49.168;9.848;2023-04-06T04:56:32;96778.88;;;7.27;62.51
40502;BME280;29631;49.168;9.848;2023-04-06T04:58:58;96787.47;;;7.36;62.61
40502;BME280;29631;49.168;9.848;2023-04-06T05:01:23;96818.31;;;7.48;62.46
40502;BME280;29631;49.168;9.848;2023-04-06T05:03:49;96831.94;;;7.58;63.16
40502;BME280;29631;49.168;9.848;2023-04-06T05:06:15;96813.06;;;7.48;62.32
40502;BME280;29631;49.168;9.848;2023-04-06T05:08:42;96820.53;;;7.51;62.61
40502;BME280;29631;49.168;9.848;2023-04-06T05:11:08;96819.09;;;7.49;62.55
40502;BME280;29631;49.168;9.848;2023-04-06T05:13:34;96829.06;;;7.53;62.64
40502;BME280;29631;49.168;9.848;2023-04-06T05:16:00;96818.91;;;7.50;62.72
40502;BME280;29631;49.168;9.848;2023-04-06T05:18:26;96819.75;;;7.51;62.66
40502;BME280;29631;49.168;9.848;2023-04-06T05:20:51;96822.19;;;7.52;63.29
40502;BME280;29631;49.168;9.848;2023-04-06T05:23:17;96825.19;;;7.49;63.08
40502;BME280;29631;49.168;9.848;2023-04-06T05:25:43;96836.19;;;7.59;63.14
40502;BME280;29631;49.168;9.848;2023-04-06T05:28:09;96813.88;;;7.49;63.08
40502;BME280;29631;49.168;9.848;2023-04-06T05:30:35;96829.06;;;7.53;63.34
40502;BME280;29631;49.168;9.848;2023-04-06T05:33:01;96822.72;;;7.48;63.41
40502;BME280;29631;49.168;9.848;2023-04-06T05:35:27;96830.31;;;7.57;63.31
40502;BME280;29631;49.168;9.848;2023-04-06T05:37:53;96833.22;;;7.62;63.12
40502;BME280;29631;49.168;9.848;2023-04-06T05:40:18;96833.22;;;7.62;63.65
40502;BME280;29631;49.168;9.848;2023-04-06T05:42:44;96835.28;;;7.67;63.34
40502;BME280;29631;49.168;9.848;2023-04-06T05:45:11;96836.38;;;7.72;63.18
40502;BME280;29631;49.168;9.848;2023-04-06T05:47:42;96822.63;;;7.70;63.57
40502;BME280;29631;49.168;9.848;2023-04-06T05:50:10;96837.91;;;7.81;63.08
40502;BME280;29631;49.168;9.848;2023-04-06T05:52:35;96846.28;;;7.91;63.44
40502;BME280;29631;49.168;9.848;2023-04-06T05:55:02;96856.88;;;7.97;63.56
40502;BME280;29631;49.168;9.848;2023-04-06T05:57:28;96813.41;;;7.74;63.60
40502;BME280;29631;49.168;9.848;2023-04-06T05:59:54;96812.47;;;7.82;63.38
40502;BME280;29631;49.168;9.848;2023-04-06T06:02:21;96852.34;;;8.06;63.84
40502;BME280;29631;49.168;9.848;2023-04-06T06:04:46;96850.78;;;8.11;63.78
40502;BME280;29631;49.168;9.848;2023-04-06T06:07:13;96814.81;;;7.91;63.47
40502;BME280;29631;49.168;9.848;2023-04-06T06:09:39;96844.06;;;8.09;63.49
40502;BME280;29631;49.168;9.848;2023-04-06T06:12:05;96857.97;;;8.17;63.68
40502;BME280;29631;49.168;9.848;2023-04-06T06:14:30;96828.16;;;8.10;64.38
40502;BME280;29631;49.168;9.848;2023-04-06T06:16:56;96829.88;;;8.18;64.24
40502;BME280;29631;49.168;9.848;2023-04-06T06:19:22;96841.28;;;8.25;63.73
40502;BME280;29631;49.168;9.848;2023-04-06T06:21:48;96849.09;;;8.39;64.55
40502;BME280;29631;49.168;9.848;2023-04-06T06:24:13;96858.66;;;8.47;63.93
40502;BME280;29631;49.168;9.848;2023-04-06T06:26:39;96847.00;;;8.49;64.48
40502;BME280;29631;49.168;9.848;2023-04-06T06:29:06;96837.66;;;8.47;64.30
40502;BME280;29631;49.168;9.848;2023-04-06T06:31:32;96854.56;;;8.59;64.03
40502;BME280;29631;49.168;9.848;2023-04-06T06:33:58;96848.16;;;8.67;64.19
40502;BME280;29631;49.168;9.848;2023-04-06T06:36:24;96852.22;;;8.70;64.71
40502;BME280;29631;49.168;9.848;2023-04-06T06:38:51;96864.06;;;8.80;64.64
40502;BME280;29631;49.168;9.848;2023-04-06T06:41:17;96863.28;;;8.86;64.61
40502;BME280;29631;49.168;9.848;2023-04-06T06:43:43;96850.72;;;8.82;64.56
40502;BME280;29631;49.168;9.848;2023-04-06T06:46:09;96863.16;;;8.94;64.66
40502;BME280;29631;49.168;9.848;2023-04-06T06:48:34;96862.03;;;9.03;65.09
40502;BME280;29631;49.168;9.848;2023-04-06T06:51:00;96846.00;;;8.98;64.63
40502;BME280;29631;49.168;9.848;2023-04-06T06:53:26;96850.13;;;9.07;64.76
40502;BME280;29631;49.168;9.848;2023-04-06T06:55:52;96861.50;;;9.14;64.79
40502;BME280;29631;49.168;9.848;2023-04-06T06:58:19;96838.47;;;9.16;65.15
40502;BME280;29631;49.168;9.848;2023-04-06T07:00:45;96863.28;;;9.35;64.98
40502;BME280;29631;49.168;9.848;2023-04-06T07:03:11;96766.81;;;8.80;65.75
40502;BME280;29631;49.168;9.848;2023-04-06T07:05:37;96850.97;;;9.41;65.82
40502;BME280;29631;49.168;9.848;2023-04-06T07:08:03;96873.31;;;9.52;64.42
40502;BME280;29631;49.168;9.848;2023-04-06T07:10:29;96858.50;;;9.44;64.13
40502;BME280;29631;49.168;9.848;2023-04-06T07:12:54;96864.19;;;9.48;64.69
40502;BME280;29631;49.168;9.848;2023-04-06T07:15:20;96858.31;;;9.46;64.79
40502;BME280;29631;49.168;9.848;2023-04-06T07:17:46;96865.44;;;9.52;64.60
40502;BME280;29631;49.168;9.848;2023-04-06T07:20:13;96863.00;;;9.50;64.76
40502;BME280;29631;49.168;9.848;2023-04-06T07:22:43;96874.75;;;9.54;63.74
40502;BME280;29631;49.168;9.848;2023-04-06T07:25:09;96868.28;;;9.57;63.76
40502;BME280;29631;49.168;9.848;2023-04-06T07:27:35;96884.78;;;9.72;64.12
40502;BME280;29631;49.168;9.848;2023-04-06T07:30:01;96894.31;;;9.73;63.71
40502;BME280;29631;49.168;9.848;2023-04-06T07:32:27;96869.53;;;9.61;64.30
40502;BME280;29631;49.168;9.848;2023-04-06T07:34:53;96871.81;;;9.70;64.55
40502;BME280;29631;49.168;9.848;2023-04-06T07:37:19;96865.94;;;9.68;64.45
40502;BME280;29631;49.168;9.848;2023-04-06T07:39:44;96897.66;;;9.94;64.34
40502;BME280;29631;49.168;9.848;2023-04-06T07:42:10;96884.72;;;9.93;64.21
40502;BME280;29631;49.168;9.848;2023-04-06T07:44:36;96880.25;;;9.93;64.16
40502;BME280;29631;49.168;9.848;2023-04-06T07:47:02;96892.72;;;10.12;63.11
40502;BME280;29631;49.168;9.848;2023-04-06T07:49:27;96886.50;;;10.19;63.30
40502;BME280;29631;49.168;9.848;2023-04-06T07:51:54;96854.88;;;10.19;63.34
40502;BME280;29631;49.168;9.848;2023-04-06T07:54:19;96883.13;;;10.45;63.27
40502;BME280;29631;49.168;9.848;2023-04-06T07:56:45;96887.81;;;10.56;64.06
40502;BME280;29631;49.168;9.848;2023-04-06T07:59:11;96884.59;;;10.67;63.73
40502;BME280;29631;49.168;9.848;2023-04-06T08:01:37;96885.84;;;10.77;63.67
40502;BME280;29631;49.168;9.848;2023-04-06T08:04:03;96890.72;;;10.93;63.17
40502;BME280;29631;49.168;9.848;2023-04-06T08:06:29;96871.25;;;10.94;62.73
40502;BME280;29631;49.168;9.848;2023-04-06T08:08:55;96858.06;;;10.94;63.21
40502;BME280;29631;49.168;9.848;2023-04-06T08:11:21;96890.75;;;11.19;63.06
40502;BME280;29631;49.168;9.848;2023-04-06T08:13:47;96881.44;;;11.23;63.60
40502;BME280;29631;49.168;9.848;2023-04-06T08:16:13;96876.94;;;11.30;63.13
40502;BME280;29631;49.168;9.848;2023-04-06T08:18:38;96895.84;;;11.40;63.33
40502;BME280;29631;49.168;9.848;2023-04-06T08:21:04;96896.88;;;11.52;62.43
40502;BME280;29631;49.168;9.848;2023-04-06T08:23:30;96893.00;;;11.54;62.76
40502;BME280;29631;49.168;9.848;2023-04-06T08:25:56;96880.22;;;11.57;63.55
40502;BME280;29631;49.168;9.848;2023-04-06T08:28:22;96883.88;;;11.63;63.17
40502;BME280;29631;49.168;9.848;2023-04-06T08:30:47;96878.16;;;11.72;62.77
40502;BME280;29631;49.168;9.848;2023-04-06T08:33:13;96876.09;;;11.81;63.19
40502;BME280;29631;49.168;9.848;2023-04-06T08:35:39;96882.78;;;11.96;63.73
40502;BME280;29631;49.168;9.848;2023-04-06T08:38:05;96898.19;;;12.12;62.29
40502;BME280;29631;49.168;9.848;2023-04-06T08:40:39;96898.38;;;12.17;62.97
40502;BME280;29631;49.168;9.848;2023-04-06T08:43:13;96888.81;;;12.23;62.22
40502;BME280;29631;49.168;9.848;2023-04-06T08:45:40;96880.44;;;12.32;62.56
40502;BME280;29631;49.168;9.848;2023-04-06T08:48:07;96884.44;;;12.41;63.11
40502;BME280;29631;49.168;9.848;2023-04-06T08:50:33;96882.16;;;12.51;62.24
40502;BME280;29631;49.168;9.848;2023-04-06T08:52:59;96876.59;;;12.59;62.80
40502;BME280;29631;49.168;9.848;2023-04-06T08:55:27;96860.75;;;12.59;61.47
40502;BME280;29631;49.168;9.848;2023-04-06T08:57:53;96872.88;;;12.73;62.17
40502;BME280;29631;49.168;9.848;2023-04-06T09:00:20;96863.91;;;12.74;61.89
40502;BME280;29631;49.168;9.848;2023-04-06T09:02:47;96869.13;;;12.87;61.33
40502;BME280;29631;49.168;9.848;2023-04-06T09:05:14;96863.38;;;12.96;61.95
40502;BME280;29631;49.168;9.848;2023-04-06T09:07:40;96865.78;;;13.04;61.85
40502;BME280;29631;49.168;9.848;2023-04-06T09:10:07;96859.25;;;13.06;60.93
40502;BME280;29631;49.168;9.848;2023-04-06T09:12:33;96867.69;;;13.21;60.83
40502;BME280;29631;49.168;9.848;2023-04-06T09:15:00;96862.03;;;13.18;60.86
40502;BME280;29631;49.168;9.848;2023-04-06T09:17:29;96871.88;;;13.35;60.97
40502;BME280;29631;49.168;9.848;2023-04-06T09:19:57;96858.19;;;13.38;60.68
40502;BME280;29631;49.168;9.848;2023-04-06T09:22:23;96862.97;;;13.48;60.50
40502;BME280;29631;49.168;9.848;2023-04-06T09:24:53;96876.47;;;13.64;60.66
40502;BME280;29631;49.168;9.848;2023-04-06T09:27:34;96852.63;;;13.64;59.84
40502;BME280;29631;49.168;9.848;2023-04-06T09:30:11;96875.63;;;13.88;59.95
40502;BME280;29631;49.168;9.848;2023-04-06T09:32:50;96863.44;;;13.87;60.56
40502;BME280;29631;49.168;9.848;2023-04-06T09:35:17;96864.97;;;13.94;60.30
40502;BME280;29631;49.168;9.848;2023-04-06T09:37:47;96874.47;;;14.02;60.72
40502;BME280;29631;49.168;9.848;2023-04-06T09:40:13;96858.41;;;13.97;60.25
40502;BME280;29631;49.168;9.848;2023-04-06T09:42:45;96867.25;;;14.09;60.13
40502;BME280;29631;49.168;9.848;2023-04-06T09:45:12;96859.47;;;14.14;59.71
40502;BME280;29631;49.168;9.848;2023-04-06T09:47:43;96865.88;;;14.24;59.24
40502;BME280;29631;49.168;9.848;2023-04-06T09:50:12;96863.16;;;14.31;59.29
40502;BME280;29631;49.168;9.848;2023-04-06T09:52:49;96857.97;;;14.36;59.44
40502;BME280;29631;49.168;9.848;2023-04-06T09:55:42;96854.81;;;14.45;59.75
40502;BME280;29631;49.168;9.848;2023-04-06T09:58:13;96849.56;;;14.56;59.26
40502;BME280;29631;49.168;9.848;2023-04-06T10:01:07;96851.44;;;14.67;59.15
40502;BME280;29631;49.168;9.848;2023-04-06T10:03:55;96823.81;;;14.57;58.75
40502;BME280;29631;49.168;9.848;2023-04-06T10:06:23;96828.16;;;14.69;59.02
40502;BME280;29631;49.168;9.848;2023-04-06T10:08:55;96848.72;;;14.85;59.55
40502;BME280;29631;49.168;9.848;2023-04-06T10:11:22;96849.00;;;14.95;59.40
40502;BME280;29631;49.168;9.848;2023-04-06T10:13:48;96843.84;;;15.12;59.46
40502;BME280;29631;49.168;9.848;2023-04-06T10:16:15;96840.63;;;15.21;59.15
40502;BME280;29631;49.168;9.848;2023-04-06T10:18:47;96838.72;;;15.28;58.97
40502;BME280;29631;49.168;9.848;2023-04-06T10:21:23;96847.50;;;15.40;59.55
40502;BME280;29631;49.168;9.848;2023-04-06T10:23:57;96817.47;;;15.28;58.22
40502;BME280;29631;49.168;9.848;2023-04-06T10:26:24;96820.00;;;15.34;58.83
40502;BME280;29631;49.168;9.848;2023-04-06T10:28:51;96835.47;;;15.49;58.94
40502;BME280;29631;49.168;9.848;2023-04-06T10:31:25;96841.13;;;15.52;58.83
40502;BME280;29631;49.168;9.848;2023-04-06T10:34:10;96837.19;;;15.55;59.11
40502;BME280;29631;49.168;9.848;2023-04-06T10:36:35;96837.78;;;15.57;59.37
40502;BME280;29631;49.168;9.848;2023-04-06T10:39:05;96835.13;;;15.57;59.03
40502;BME280;29631;49.168;9.848;2023-04-06T10:41:40;96846.13;;;15.72;58.84
40502;BME280;29631;49.168;9.848;2023-04-06T10:44:06;96814.56;;;15.75;59.25
40502;BME280;29631;49.168;9.848;2023-04-06T10:46:33;96828.63;;;15.98;58.85
40502;BME280;29631;49.168;9.848;2023-04-06T10:49:11;96830.09;;;16.17;59.33
40502;BME280;29631;49.168;9.848;2023-04-06T10:51:40;96841.75;;;16.39;59.50
40502;BME280;29631;49.168;9.848;2023-04-06T10:54:06;96849.44;;;16.52;59.16
40502;BME280;29631;49.168;9.848;2023-04-06T10:56:33;96838.34;;;16.55;58.64
40502;BME280;29631;49.168;9.848;2023-04-06T10:59:02;96840.16;;;16.66;58.04
40502;BME280;29631;49.168;9.848;2023-04-06T11:01:28;96835.44;;;16.57;58.29
40502;BME280;29631;49.168;9.848;2023-04-06T11:03:56;96832.94;;;16.50;57.81
40502;BME280;29631;49.168;9.848;2023-04-06T11:06:30;96823.78;;;16.46;57.79
40502;BME280;29631;49.168;9.848;2023-04-06T11:08:57;96830.94;;;16.57;57.86
40502;BME280;29631;49.168;9.848;2023-04-06T11:11:26;96812.75;;;16.54;58.40
40502;BME280;29631;49.168;9.848;2023-04-06T11:13:59;96810.28;;;16.64;58.14
40502;BME280;29631;49.168;9.848;2023-04-06T11:16:31;96809.34;;;16.70;58.08
40502;BME280;29631;49.168;9.848;2023-04-06T11:19:04;96821.97;;;16.91;57.40
40502;BME280;29631;49.168;9.848;2023-04-06T11:21:42;96810.34;;;16.97;57.62
40502;BME280;29631;49.168;9.848;2023-04-06T11:24:14;96814.97;;;17.18;57.50
40502;BME280;29631;49.168;9.848;2023-04-06T11:26:48;96806.25;;;17.22;57.53
40502;BME280;29631;49.168;9.848;2023-04-06T11:29:19;96819.63;;;17.39;57.10
40502;BME280;29631;49.168;9.848;2023-04-06T11:31:53;96792.88;;;17.34;56.67
40502;BME280;29631;49.168;9.848;2023-04-06T11:34:22;96815.63;;;17.57;56.93
40502;BME280;29631;49.168;9.848;2023-04-06T11:36:58;96808.84;;;17.66;57.26
40502;BME280;29631;49.168;9.848;2023-04-06T11:39:25;96807.69;;;17.79;57.57
40502;BME280;29631;49.168;9.848;2023-04-06T11:41:59;96804.41;;;17.93;57.47
40502;BME280;29631;49.168;9.848;2023-04-06T11:44:35;96810.53;;;18.10;57.86
40502;BME280;29631;49.168;9.848;2023-04-06T11:47:03;96777.94;;;18.08;57.42
40502;BME280;29631;49.168;9.848;2023-04-06T11:49:33;96779.66;;;18.19;57.25
40502;BME280;29631;49.168;9.848;2023-04-06T11:52:02;96782.50;;;18.29;57.18
40502;BME280;29631;49.168;9.848;2023-04-06T11:54:36;96782.38;;;18.40;57.21
40502;BME280;29631;49.168;9.848;2023-04-06T11:57:04;96785.94;;;18.51;56.80
40502;BME280;29631;49.168;9.848;2023-04-06T11:59:34;96764.22;;;18.42;57.21
40502;BME280;29631;49.168;9.848;2023-04-06T12:02:01;96757.38;;;18.51;57.39
40502;BME280;29631;49.168;9.848;2023-04-06T12:04:27;96768.44;;;18.65;57.42
40502;BME280;29631;49.168;9.848;2023-04-06T12:06:53;96762.41;;;18.74;56.94
40502;BME280;29631;49.168;9.848;2023-04-06T12:09:19;96773.06;;;18.95;57.38
40502;BME280;29631;49.168;9.848;2023-04-06T12:11:45;96766.63;;;18.96;57.22
40502;BME280;29631;49.168;9.848;2023-04-06T12:14:11;96772.66;;;19.08;57.63
40502;BME280;29631;49.168;9.848;2023-04-06T12:16:37;96787.19;;;19.22;57.15
40502;BME280;29631;49.168;9.848;2023-04-06T12:19:04;96763.63;;;19.14;56.68
40502;BME280;29631;49.168;9.848;2023-04-06T12:21:31;96772.47;;;19.20;56.95
40502;BME280;29631;49.168;9.848;2023-04-06T12:23:58;96753.44;;;19.11;56.13
40502;BME280;29631;49.168;9.848;2023-04-06T12:26:24;96771.16;;;19.22;56.48
40502;BME280;29631;49.168;9.848;2023-04-06T12:28:51;96735.66;;;19.00;55.89
40502;BME280;29631;49.168;9.848;2023-04-06T12:31:21;96752.31;;;19.07;55.99
40502;BME280;29631;49.168;9.848;2023-04-06T12:33:49;96743.72;;;19.05;55.59
40502;BME280;29631;49.168;9.848;2023-04-06T12:36:17;96752.53;;;19.06;55.29
40502;BME280;29631;49.168;9.848;2023-04-06T12:38:50;96756.03;;;19.06;55.26
40502;BME280;29631;49.168;9.848;2023-04-06T12:41:17;96721.09;;;18.82;55.46
40502;BME280;29631;49.168;9.848;2023-04-06T12:43:43;96748.19;;;18.95;55.04
40502;BME280;29631;49.168;9.848;2023-04-06T12:46:10;96720.25;;;18.81;54.87
40502;BME280;29631;49.168;9.848;2023-04-06T12:48:36;96744.84;;;19.09;55.40
40502;BME280;29631;49.168;9.848;2023-04-06T12:51:05;96746.47;;;19.10;55.39
40502;BME280;29631;49.168;9.848;2023-04-06T12:53:32;96737.47;;;19.21;55.54
40502;BME280;29631;49.168;9.848;2023-04-06T12:55:58;96752.56;;;19.37;55.82
40502;BME280;29631;49.168;9.848;2023-04-06T12:58:25;96734.38;;;19.34;55.29
40502;BME280;29631;49.168;9.848;2023-04-06T13:00:55;96747.47;;;19.36;55.00
40502;BME280;29631;49.168;9.848;2023-04-06T13:03:21;96722.41;;;19.10;54.55
40502;BME280;29631;49.168;9.848;2023-04-06T13:05:51;96743.69;;;19.00;54.43
40502;BME280;29631;49.168;9.848;2023-04-06T13:08:19;96749.00;;;18.95;54.74